sensor_id;sensor_type;location;lat;lon;timestamp;pressure;altitude;pressure_sealevel;temperature;humidity
15489;BME280;7846;48.830;9.116;2022-10-22T00:02:12;97601.41;;;19.90;62.58
15489;BME280;7846;48.830;9.116;2022-10-22T00:04:40;97593.19;;;19.91;63.27
15489;BME280;7846;48.830;9.116;2022-10-22T00:07:06;97597.47;;;19.74;63.99
15489;BME280;7846;48.830;9.116;2022-10-22T00:09:31;97581.94;;;19.64;64.62
15489;BME280;7846;48.830;9.116;2022-10-22T00:11:57;97576.66;;;20.13;63.84
15489;BME280;7846;48.830;9.116;2022-10-22T00:14:23;97571.38;;;20.24;62.90
15489;BME280;7846;48.830;9.116;2022-10-22T00:16:48;97569.97;;;20.70;61.08
15489;BME280;7846;48.830;9.116;2022-10-22T00:19:14;97571.81;;;19.91;63.31
15489;BME280;7846;48.830;9.116;2022-10-22T00:21:39;97571.66;;;20.35;63.00
15489;BME280;7846;48.830;9.116;2022-10-22T00:24:04;97571.25;;;20.01;63.17
15489;BME280;7846;48.830;9.116;2022-10-22T00:26:30;97580.63;;;19.73;64.84
15489;BME280;7846;48.830;9.116;2022-10-22T00:28:56;97582.69;;;20.08;63.06
15489;BME280;7846;48.830;9.116;2022-10-22T00:31:23;97595.09;;;19.84;63.45
15489;BME280;7846;48.830;9.116;2022-10-22T00:33:49;97603.44;;;20.24;62.69
15489;BME280;7846;48.830;9.116;2022-10-22T00:36:15;97614.50;;;20.65;61.85
15489;BME280;7846;48.830;9.116;2022-10-22T00:38:41;97611.56;;;19.99;63.28
15489;BME280;7846;48.830;9.116;2022-10-22T00:41:07;97607.03;;;20.18;62.93
15489;BME280;7846;48.830;9.116;2022-10-22T00:43:33;97610.22;;;20.09;63.45
15489;BME280;7846;48.830;9.116;2022-10-22T00:46:17;97602.13;;;20.15;62.49
15489;BME280;7846;48.830;9.116;2022-10-22T00:48:43;97600.06;;;19.62;64.23
15489;BME280;7846;48.830;9.116;2022-10-22T00:51:09;97599.16;;;20.23;63.02
15489;BME280;7846;48.830;9.116;2022-10-22T00:53:38;97595.66;;;20.23;63.25
15489;BME280;7846;48.830;9.116;2022-10-22T00:56:04;97588.69;;;20.40;62.30
15489;BME280;7846;48.830;9.116;2022-10-22T00:58:34;97575.66;;;20.62;61.81
15489;BME280;7846;48.830;9.116;2022-10-22T01:01:01;97582.91;;;20.25;62.88
15489;BME280;7846;48.830;9.116;2022-10-22T01:03:28;97587.88;;;20.40;61.61
15489;BME280;7846;48.830;9.116;2022-10-22T01:05:58;97586.63;;;20.05;63.17
15489;BME280;7846;48.830;9.116;2022-10-22T01:12:05;97545.75;;;20.35;62.08
15489;BME280;7846;48.830;9.116;2022-10-22T01:15:00;97548.75;;;20.09;62.83
15489;BME280;7846;48.830;9.116;2022-10-22T01:17:40;97556.25;;;20.67;61.80
15489;BME280;7846;48.830;9.116;2022-10-22T01:20:18;97535.94;;;20.47;62.34
15489;BME280;7846;48.830;9.116;2022-10-22T01:31:44;97532.97;;;20.56;62.27
15489;BME280;7846;48.830;9.116;2022-10-22T01:34:13;97534.88;;;20.48;61.34
15489;BME280;7846;48.830;9.116;2022-10-22T01:36:42;97560.28;;;20.39;62.10
15489;BME280;7846;48.830;9.116;2022-10-22T01:39:09;97583.00;;;20.00;63.07
15489;BME280;7846;48.830;9.116;2022-10-22T01:41:38;97580.25;;;20.25;62.77
15489;BME280;7846;48.830;9.116;2022-10-22T01:44:04;97574.56;;;20.51;61.38
15489;BME280;7846;48.830;9.116;2022-10-22T01:46:30;97574.84;;;20.62;61.32
15489;BME280;7846;48.830;9.116;2022-10-22T01:49:08;97576.03;;;21.78;58.51
15489;BME280;7846;48.830;9.116;2022-10-22T02:00:03;97593.41;;;20.98;59.55
15489;BME280;7846;48.830;9.116;2022-10-22T02:02:43;97593.38;;;21.75;57.82
15489;BME280;7846;48.830;9.116;2022-10-22T02:05:27;97604.94;;;21.88;57.29
15489;BME280;7846;48.830;9.116;2022-10-22T02:08:00;97608.31;;;21.36;58.90
15489;BME280;7846;48.830;9.116;2022-10-22T02:10:28;97612.28;;;21.03;58.41
15489;BME280;7846;48.830;9.116;2022-10-22T02:12:54;97617.41;;;20.63;60.58
15489;BME280;7846;48.830;9.116;2022-10-22T02:15:22;97606.00;;;20.68;61.08
15489;BME280;7846;48.830;9.116;2022-10-22T02:17:53;97596.56;;;20.95;59.74
15489;BME280;7846;48.830;9.116;2022-10-22T02:20:25;97582.72;;;20.38;60.66
15489;BME280;7846;48.830;9.116;2022-10-22T02:22:51;97588.06;;;20.98;60.42
15489;BME280;7846;48.830;9.116;2022-10-22T02:25:22;97588.66;;;21.00;59.36
15489;BME280;7846;48.830;9.116;2022-10-22T02:28:01;97591.59;;;21.11;59.37
15489;BME280;7846;48.830;9.116;2022-10-22T02:30:29;97595.38;;;21.92;56.95
15489;BME280;7846;48.830;9.116;2022-10-22T02:33:01;97592.00;;;21.73;58.23
15489;BME280;7846;48.830;9.116;2022-10-22T02:35:33;97596.97;;;21.22;58.80
15489;BME280;7846;48.830;9.116;2022-10-22T02:37:59;97611.41;;;20.79;59.95
15489;BME280;7846;48.830;9.116;2022-10-22T02:40:27;97609.00;;;20.90;59.48
15489;BME280;7846;48.830;9.116;2022-10-22T02:42:55;97601.72;;;20.48;60.27
15489;BME280;7846;48.830;9.116;2022-10-22T02:45:21;97587.78;;;21.18;59.17
15489;BME280;7846;48.830;9.116;2022-10-22T02:47:48;97593.72;;;20.78;60.48
15489;BME280;7846;48.830;9.116;2022-10-22T02:50:14;97590.81;;;21.22;58.92
15489;BME280;7846;48.830;9.116;2022-10-22T02:52:40;97585.38;;;21.52;58.38
15489;BME280;7846;48.830;9.116;2022-10-22T02:55:07;97580.13;;;21.34;58.41
15489;BME280;7846;48.830;9.116;2022-10-22T02:57:33;97590.19;;;21.20;58.78
15489;BME280;7846;48.830;9.116;2022-10-22T02:59:58;97583.50;;;21.88;57.05
15489;BME280;7846;48.830;9.116;2022-10-22T03:02:26;97573.97;;;22.20;56.15
15489;BME280;7846;48.830;9.116;2022-10-22T03:04:52;97575.44;;;21.76;57.30
15489;BME280;7846;48.830;9.116;2022-10-22T03:07:17;97580.78;;;21.99;56.91
15489;BME280;7846;48.830;9.116;2022-10-22T03:09:43;97578.38;;;21.39;57.95
15489;BME280;7846;48.830;9.116;2022-10-22T03:12:08;97567.59;;;21.98;56.74
15489;BME280;7846;48.830;9.116;2022-10-22T03:14:35;97583.44;;;22.11;56.73
15489;BME280;7846;48.830;9.116;2022-10-22T03:17:02;97571.66;;;22.12;56.39
15489;BME280;7846;48.830;9.116;2022-10-22T03:19:27;97576.88;;;20.90;58.00
15489;BME280;7846;48.830;9.116;2022-10-22T03:21:56;97571.38;;;21.38;58.17
15489;BME280;7846;48.830;9.116;2022-10-22T03:24:29;97565.22;;;21.61;58.68
15489;BME280;7846;48.830;9.116;2022-10-22T03:26:56;97558.28;;;20.95;58.55
15489;BME280;7846;48.830;9.116;2022-10-22T03:29:23;97552.66;;;21.62;56.47
15489;BME280;7846;48.830;9.116;2022-10-22T03:31:50;97555.56;;;21.37;57.17
15489;BME280;7846;48.830;9.116;2022-10-22T03:34:15;97562.03;;;21.99;55.35
15489;BME280;7846;48.830;9.116;2022-10-22T03:36:42;97563.03;;;21.58;56.27
15489;BME280;7846;48.830;9.116;2022-10-22T03:39:10;97561.44;;;20.92;58.99
15489;BME280;7846;48.830;9.116;2022-10-22T03:41:37;97559.97;;;21.43;56.85
15489;BME280;7846;48.830;9.116;2022-10-22T03:44:03;97560.00;;;21.55;57.09
15489;BME280;7846;48.830;9.116;2022-10-22T03:46:29;97549.25;;;21.78;56.62
15489;BME280;7846;48.830;9.116;2022-10-22T03:48:55;97555.44;;;21.55;56.59
15489;BME280;7846;48.830;9.116;2022-10-22T03:51:20;97570.97;;;20.88;58.19
15489;BME280;7846;48.830;9.116;2022-10-22T03:53:47;97577.09;;;21.54;57.30
15489;BME280;7846;48.830;9.116;2022-10-22T03:56:14;97584.50;;;21.28;58.06
15489;BME280;7846;48.830;9.116;2022-10-22T03:58:40;97584.50;;;20.63;59.05
15489;BME280;7846;48.830;9.116;2022-10-22T04:01:09;97580.78;;;20.75;58.98
15489;BME280;7846;48.830;9.116;2022-10-22T04:03:37;97572.78;;;21.29;57.88
15489;BME280;7846;48.830;9.116;2022-10-22T04:06:08;97562.97;;;21.93;56.26
15489;BME280;7846;48.830;9.116;2022-10-22T04:08:34;97576.50;;;21.75;56.46
15489;BME280;7846;48.830;9.116;2022-10-22T04:10:59;97619.38;;;20.68;58.59
15489;BME280;7846;48.830;9.116;2022-10-22T04:13:24;97619.22;;;20.33;60.12
15489;BME280;7846;48.830;9.116;2022-10-22T04:15:50;97597.22;;;20.30;60.44
15489;BME280;7846;48.830;9.116;2022-10-22T04:18:21;97602.56;;;20.79;59.86
15489;BME280;7846;48.830;9.116;2022-10-22T04:20:47;97606.38;;;20.04;61.62
15489;BME280;7846;48.830;9.116;2022-10-22T04:23:13;97607.91;;;20.30;60.94
15489;BME280;7846;48.830;9.116;2022-10-22T04:25:38;97600.28;;;20.94;59.56
15489;BME280;7846;48.830;9.116;2022-10-22T04:28:06;97618.22;;;20.64;59.98
15489;BME280;7846;48.830;9.116;2022-10-22T04:30:32;97604.44;;;20.78;59.16
15489;BME280;7846;48.830;9.116;2022-10-22T04:32:58;97587.84;;;21.00;58.60
15489;BME280;7846;48.830;9.116;2022-10-22T04:35:23;97588.84;;;20.87;58.67
15489;BME280;7846;48.830;9.116;2022-10-22T04:37:50;97590.69;;;20.75;58.74
15489;BME280;7846;48.830;9.116;2022-10-22T04:40:15;97592.47;;;20.81;59.09
15489;BME280;7846;48.830;9.116;2022-10-22T04:42:41;97589.56;;;20.94;58.56
15489;BME280;7846;48.830;9.116;2022-10-22T04:45:07;97601.75;;;20.78;59.01
15489;BME280;7846;48.830;9.116;2022-10-22T04:47:32;97605.97;;;20.56;59.46
15489;BME280;7846;48.830;9.116;2022-10-22T04:49:58;97606.22;;;20.54;59.45
15489;BME280;7846;48.830;9.116;2022-10-22T04:52:26;97612.13;;;20.57;59.74
15489;BME280;7846;48.830;9.116;2022-10-22T04:54:51;97612.88;;;20.27;60.19
15489;BME280;7846;48.830;9.116;2022-10-22T04:57:20;97615.13;;;19.93;61.25
15489;BME280;7846;48.830;9.116;2022-10-22T04:59:47;97618.84;;;19.92;61.37
15489;BME280;7846;48.830;9.116;2022-10-22T05:02:12;97614.44;;;19.98;61.50
15489;BME280;7846;48.830;9.116;2022-10-22T05:04:43;97617.94;;;20.17;61.32
15489;BME280;7846;48.830;9.116;2022-10-22T05:07:09;97628.06;;;19.96;61.65
15489;BME280;7846;48.830;9.116;2022-10-22T05:09:35;97629.88;;;19.52;62.94
15489;BME280;7846;48.830;9.116;2022-10-22T05:12:01;97627.03;;;19.72;62.98
15489;BME280;7846;48.830;9.116;2022-10-22T05:14:27;97628.34;;;19.88;61.94
15489;BME280;7846;48.830;9.116;2022-10-22T05:16:54;97629.38;;;19.87;62.29
15489;BME280;7846;48.830;9.116;2022-10-22T05:19:25;97642.38;;;20.02;62.20
15489;BME280;7846;48.830;9.116;2022-10-22T05:21:53;97647.81;;;19.45;63.26
15489;BME280;7846;48.830;9.116;2022-10-22T05:24:19;97636.78;;;19.10;64.19
15489;BME280;7846;48.830;9.116;2022-10-22T05:26:48;97644.44;;;19.81;63.07
15489;BME280;7846;48.830;9.116;2022-10-22T05:29:16;97655.50;;;19.85;62.40
15489;BME280;7846;48.830;9.116;2022-10-22T05:31:41;97658.13;;;20.10;62.37
15489;BME280;7846;48.830;9.116;2022-10-22T05:34:06;97662.53;;;19.98;61.96
15489;BME280;7846;48.830;9.116;2022-10-22T05:36:33;97663.84;;;20.14;61.75
15489;BME280;7846;48.830;9.116;2022-10-22T05:39:00;97676.84;;;20.28;61.58
15489;BME280;7846;48.830;9.116;2022-10-22T05:41:26;97677.38;;;19.94;62.19
15489;BME280;7846;48.830;9.116;2022-10-22T05:43:56;97682.13;;;20.53;61.23
15489;BME280;7846;48.830;9.116;2022-10-22T05:46:23;97688.94;;;20.49;61.09
15489;BME280;7846;48.830;9.116;2022-10-22T05:48:50;97689.66;;;20.01;61.99
15489;BME280;7846;48.830;9.116;2022-10-22T05:51:16;97695.66;;;19.97;61.92
15489;BME280;7846;48.830;9.116;2022-10-22T05:53:42;97708.81;;;19.73;62.70
15489;BME280;7846;48.830;9.116;2022-10-22T05:56:11;97702.84;;;20.40;60.96
15489;BME280;7846;48.830;9.116;2022-10-22T05:58:37;97711.97;;;20.32;60.74
15489;BME280;7846;48.830;9.116;2022-10-22T06:01:11;97723.47;;;20.14;61.55
15489;BME280;7846;48.830;9.116;2022-10-22T06:03:37;97714.28;;;19.85;62.05
15489;BME280;7846;48.830;9.116;2022-10-22T06:08:39;97713.47;;;19.85;61.98
15489;BME280;7846;48.830;9.116;2022-10-22T06:11:05;97723.28;;;19.59;62.79
15489;BME280;7846;48.830;9.116;2022-10-22T06:13:30;97721.66;;;19.83;61.79
15489;BME280;7846;48.830;9.116;2022-10-22T06:15:57;97730.88;;;20.12;61.12
15489;BME280;7846;48.830;9.116;2022-10-22T06:18:23;97738.09;;;20.30;60.56
15489;BME280;7846;48.830;9.116;2022-10-22T06:20:48;97732.28;;;20.15;60.88
15489;BME280;7846;48.830;9.116;2022-10-22T06:23:14;97736.25;;;20.49;59.94
15489;BME280;7846;48.830;9.116;2022-10-22T06:25:41;97745.41;;;20.78;59.03
15489;BME280;7846;48.830;9.116;2022-10-22T06:28:06;97739.78;;;20.24;60.34
15489;BME280;7846;48.830;9.116;2022-10-22T06:30:32;97748.19;;;20.28;60.00
15489;BME280;7846;48.830;9.116;2022-10-22T06:32:57;97751.69;;;20.28;60.13
15489;BME280;7846;48.830;9.116;2022-10-22T06:35:22;97748.44;;;20.01;61.17
15489;BME280;7846;48.830;9.116;2022-10-22T06:37:49;97758.09;;;20.02;60.75
15489;BME280;7846;48.830;9.116;2022-10-22T06:40:14;97766.63;;;20.36;59.83
15489;BME280;7846;48.830;9.116;2022-10-22T06:42:40;97773.22;;;20.59;59.08
15489;BME280;7846;48.830;9.116;2022-10-22T06:45:08;97778.94;;;20.37;59.49
15489;BME280;7846;48.830;9.116;2022-10-22T06:47:33;97773.69;;;21.04;58.34
15489;BME280;7846;48.830;9.116;2022-10-22T06:49:59;97769.25;;;21.28;57.77
15489;BME280;7846;48.830;9.116;2022-10-22T06:52:24;97779.75;;;20.63;59.18
15489;BME280;7846;48.830;9.116;2022-10-22T06:54:49;97784.78;;;20.71;58.90
15489;BME280;7846;48.830;9.116;2022-10-22T06:57:15;97783.91;;;20.59;58.92
15489;BME280;7846;48.830;9.116;2022-10-22T06:59:40;97792.59;;;20.91;58.62
15489;BME280;7846;48.830;9.116;2022-10-22T07:02:08;97805.69;;;20.62;59.13
15489;BME280;7846;48.830;9.116;2022-10-22T07:04:33;97807.00;;;20.71;59.44
15489;BME280;7846;48.830;9.116;2022-10-22T07:06:58;97811.25;;;20.97;58.89
15489;BME280;7846;48.830;9.116;2022-10-22T07:09:24;97817.47;;;20.04;60.83
15489;BME280;7846;48.830;9.116;2022-10-22T07:11:49;97816.03;;;20.77;59.34
15489;BME280;7846;48.830;9.116;2022-10-22T07:14:16;97820.75;;;20.75;59.39
15489;BME280;7846;48.830;9.116;2022-10-22T07:16:41;97823.94;;;21.20;58.72
15489;BME280;7846;48.830;9.116;2022-10-22T07:19:07;97829.94;;;21.53;57.20
15489;BME280;7846;48.830;9.116;2022-10-22T07:21:32;97826.47;;;21.64;58.23
15489;BME280;7846;48.830;9.116;2022-10-22T07:23:58;97832.31;;;22.03;56.69
15489;BME280;7846;48.830;9.116;2022-10-22T07:26:24;97831.19;;;22.69;55.30
15489;BME280;7846;48.830;9.116;2022-10-22T07:28:51;97840.19;;;22.63;55.37
15489;BME280;7846;48.830;9.116;2022-10-22T07:31:17;97844.16;;;22.60;55.70
15489;BME280;7846;48.830;9.116;2022-10-22T07:33:43;97846.81;;;22.84;54.87
15489;BME280;7846;48.830;9.116;2022-10-22T07:36:11;97857.25;;;22.03;57.07
15489;BME280;7846;48.830;9.116;2022-10-22T07:38:45;97849.72;;;22.35;56.57
15489;BME280;7846;48.830;9.116;2022-10-22T07:41:11;97847.91;;;22.48;56.41
15489;BME280;7846;48.830;9.116;2022-10-22T07:43:38;97849.53;;;22.96;55.35
15489;BME280;7846;48.830;9.116;2022-10-22T07:46:04;97860.94;;;23.14;54.73
15489;BME280;7846;48.830;9.116;2022-10-22T07:48:29;97859.56;;;23.40;54.47
15489;BME280;7846;48.830;9.116;2022-10-22T07:50:55;97855.09;;;22.82;54.71
15489;BME280;7846;48.830;9.116;2022-10-22T07:53:22;97861.78;;;23.43;54.08
15489;BME280;7846;48.830;9.116;2022-10-22T07:55:49;97860.94;;;22.79;54.39
15489;BME280;7846;48.830;9.116;2022-10-22T07:58:16;97861.09;;;23.36;54.28
15489;BME280;7846;48.830;9.116;2022-10-22T08:00:42;97864.09;;;23.11;54.13
15489;BME280;7846;48.830;9.116;2022-10-22T08:03:10;97865.28;;;23.84;52.86
15489;BME280;7846;48.830;9.116;2022-10-22T08:05:36;97866.69;;;24.04;52.95
15489;BME280;7846;48.830;9.116;2022-10-22T08:08:04;97866.84;;;24.31;52.79
15489;BME280;7846;48.830;9.116;2022-10-22T08:10:30;97870.81;;;24.40;52.46
15489;BME280;7846;48.830;9.116;2022-10-22T08:12:56;97877.34;;;24.44;52.55
15489;BME280;7846;48.830;9.116;2022-10-22T08:15:21;97869.56;;;24.14;51.74
15489;BME280;7846;48.830;9.116;2022-10-22T08:17:49;97872.66;;;24.39;52.60
15489;BME280;7846;48.830;9.116;2022-10-22T08:20:14;97880.25;;;24.59;52.32
15489;BME280;7846;48.830;9.116;2022-10-22T08:22:40;97879.25;;;24.82;51.73
15489;BME280;7846;48.830;9.116;2022-10-22T08:25:06;97871.50;;;24.69;51.44
15489;BME280;7846;48.830;9.116;2022-10-22T08:27:32;97883.72;;;24.77;51.81
15489;BME280;7846;48.830;9.116;2022-10-22T08:29:57;97877.78;;;24.24;52.80
15489;BME280;7846;48.830;9.116;2022-10-22T08:32:23;97886.63;;;24.70;51.58
15489;BME280;7846;48.830;9.116;2022-10-22T08:34:48;97876.28;;;24.84;51.66
15489;BME280;7846;48.830;9.116;2022-10-22T08:37:14;97875.84;;;24.70;52.19
15489;BME280;7846;48.830;9.116;2022-10-22T08:39:41;97889.69;;;24.79;51.71
15489;BME280;7846;48.830;9.116;2022-10-22T08:50:30;97878.06;;;24.95;51.07
15489;BME280;7846;48.830;9.116;2022-10-22T08:53:01;97877.63;;;24.31;51.17
15489;BME280;7846;48.830;9.116;2022-10-22T08:55:29;97875.44;;;24.78;51.21
15489;BME280;7846;48.830;9.116;2022-10-22T09:00:35;97885.75;;;24.36;51.65
15489;BME280;7846;48.830;9.116;2022-10-22T09:03:14;97888.97;;;23.87;52.40
15489;BME280;7846;48.830;9.116;2022-10-22T09:06:00;97890.97;;;24.93;50.27
15489;BME280;7846;48.830;9.116;2022-10-22T09:08:27;97885.22;;;25.45;49.50
15489;BME280;7846;48.830;9.116;2022-10-22T09:10:57;97893.75;;;24.98;50.66
15489;BME280;7846;48.830;9.116;2022-10-22T09:13:26;97891.34;;;24.63;50.89
15489;BME280;7846;48.830;9.116;2022-10-22T09:15:58;97891.50;;;24.56;51.00
15489;BME280;7846;48.830;9.116;2022-10-22T09:18:34;97892.44;;;25.01;50.04
15489;BME280;7846;48.830;9.116;2022-10-22T09:26:45;97894.19;;;24.39;50.61
15489;BME280;7846;48.830;9.116;2022-10-22T09:29:19;97898.63;;;25.01;49.93
15489;BME280;7846;48.830;9.116;2022-10-22T09:31:49;97896.88;;;24.90;49.46
15489;BME280;7846;48.830;9.116;2022-10-22T09:34:18;97904.63;;;25.91;48.60
15489;BME280;7846;48.830;9.116;2022-10-22T09:36:44;97898.06;;;25.38;48.22
15489;BME280;7846;48.830;9.116;2022-10-22T09:39:28;97900.34;;;26.22;47.71
15489;BME280;7846;48.830;9.116;2022-10-22T09:41:57;97915.00;;;26.31;46.91
15489;BME280;7846;48.830;9.116;2022-10-22T09:44:22;97910.28;;;26.17;47.05
15489;BME280;7846;48.830;9.116;2022-10-22T09:46:48;97909.94;;;25.37;47.30
15489;BME280;7846;48.830;9.116;2022-10-22T09:49:16;97910.75;;;26.09;46.63
15489;BME280;7846;48.830;9.116;2022-10-22T09:51:53;97913.97;;;27.07;45.34
15489;BME280;7846;48.830;9.116;2022-10-22T09:54:24;97927.16;;;26.34;47.33
15489;BME280;7846;48.830;9.116;2022-10-22T09:59:24;97935.25;;;26.61;46.61
15489;BME280;7846;48.830;9.116;2022-10-22T10:01:59;97929.13;;;26.44;46.44
15489;BME280;7846;48.830;9.116;2022-10-22T10:04:26;97930.22;;;25.45;48.64
15489;BME280;7846;48.830;9.116;2022-10-22T10:06:54;97941.13;;;25.33;48.53
15489;BME280;7846;48.830;9.116;2022-10-22T10:09:23;97944.53;;;25.45;48.60
15489;BME280;7846;48.830;9.116;2022-10-22T10:15:43;97937.66;;;25.16;49.14
15489;BME280;7846;48.830;9.116;2022-10-22T10:20:43;97944.84;;;25.71;47.52
15489;BME280;7846;48.830;9.116;2022-10-22T10:23:26;97954.44;;;25.83;47.65
15489;BME280;7846;48.830;9.116;2022-10-22T10:26:02;97953.09;;;26.08;46.68
15489;BME280;7846;48.830;9.116;2022-10-22T10:28:56;97957.06;;;26.00;46.97
15489;BME280;7846;48.830;9.116;2022-10-22T10:31:36;97955.03;;;26.67;46.94
15489;BME280;7846;48.830;9.116;2022-10-22T10:37:07;97965.63;;;25.92;48.24
15489;BME280;7846;48.830;9.116;2022-10-22T10:42:32;97963.66;;;26.69;47.06
15489;BME280;7846;48.830;9.116;2022-10-22T10:45:16;97963.88;;;26.94;46.44
15489;BME280;7846;48.830;9.116;2022-10-22T10:48:05;97972.16;;;27.15;46.70
15489;BME280;7846;48.830;9.116;2022-10-22T10:50:57;97971.53;;;27.08;45.06
15489;BME280;7846;48.830;9.116;2022-10-22T10:56:29;97969.59;;;26.66;46.78
15489;BME280;7846;48.830;9.116;2022-10-22T10:59:16;97957.41;;;26.36;45.45
15489;BME280;7846;48.830;9.116;2022-10-22T11:07:24;97958.09;;;26.81;45.71
15489;BME280;7846;48.830;9.116;2022-10-22T11:09:59;97954.53;;;26.16;45.09
15489;BME280;7846;48.830;9.116;2022-10-22T11:12:31;97960.31;;;26.89;45.03
15489;BME280;7846;48.830;9.116;2022-10-22T11:15:06;97962.53;;;26.60;45.83
15489;BME280;7846;48.830;9.116;2022-10-22T11:17:41;97958.81;;;27.50;44.66
15489;BME280;7846;48.830;9.116;2022-10-22T11:20:16;97965.16;;;27.19;45.43
15489;BME280;7846;48.830;9.116;2022-10-22T11:23:01;97961.59;;;25.95;47.48
15489;BME280;7846;48.830;9.116;2022-10-22T11:25:33;97952.38;;;26.45;45.69
15489;BME280;7846;48.830;9.116;2022-10-22T11:28:25;97948.94;;;26.49;46.18
15489;BME280;7846;48.830;9.116;2022-10-22T11:30:59;97949.31;;;26.36;45.22
15489;BME280;7846;48.830;9.116;2022-10-22T11:33:31;97953.97;;;27.58;43.86
15489;BME280;7846;48.830;9.116;2022-10-22T11:35:58;97953.16;;;27.52;44.34
15489;BME280;7846;48.830;9.116;2022-10-22T11:38:27;97950.88;;;25.56;46.38
15489;BME280;7846;48.830;9.116;2022-10-22T11:41:12;97947.19;;;27.50;44.73
15489;BME280;7846;48.830;9.116;2022-10-22T11:46:38;97941.03;;;27.65;43.86
15489;BME280;7846;48.830;9.116;2022-10-22T11:51:40;97940.59;;;27.88;43.71
15489;BME280;7846;48.830;9.116;2022-10-22T11:54:37;97941.50;;;28.35;42.69
15489;BME280;7846;48.830;9.116;2022-10-22T11:57:24;97946.88;;;26.99;45.16
15489;BME280;7846;48.830;9.116;2022-10-22T11:59:58;97941.25;;;27.58;41.98
15489;BME280;7846;48.830;9.116;2022-10-22T12:05:06;97945.56;;;26.69;44.62
15489;BME280;7846;48.830;9.116;2022-10-22T12:10:19;97942.91;;;28.58;40.92
15489;BME280;7846;48.830;9.116;2022-10-22T12:13:14;97937.00;;;27.67;41.66
15489;BME280;7846;48.830;9.116;2022-10-22T12:15:53;97940.78;;;27.14;43.21
15489;BME280;7846;48.830;9.116;2022-10-22T12:18:24;97949.19;;;27.17;41.98
15489;BME280;7846;48.830;9.116;2022-10-22T12:20:52;97939.34;;;29.03;40.63
15489;BME280;7846;48.830;9.116;2022-10-22T12:23:24;97941.28;;;28.41;40.02
15489;BME280;7846;48.830;9.116;2022-10-22T12:25:53;97948.03;;;28.49;40.07
15489;BME280;7846;48.830;9.116;2022-10-22T12:28:19;97939.63;;;28.76;40.03
15489;BME280;7846;48.830;9.116;2022-10-22T12:30:45;97935.03;;;30.71;38.17
15489;BME280;7846;48.830;9.116;2022-10-22T12:33:21;97938.44;;;31.64;35.29
15489;BME280;7846;48.830;9.116;2022-10-22T12:35:48;97945.03;;;31.82;34.72
15489;BME280;7846;48.830;9.116;2022-10-22T12:38:20;97942.75;;;32.65;34.19
15489;BME280;7846;48.830;9.116;2022-10-22T12:40:47;97938.47;;;33.65;31.60
15489;BME280;7846;48.830;9.116;2022-10-22T12:43:15;97953.72;;;35.51;29.99
15489;BME280;7846;48.830;9.116;2022-10-22T12:45:46;97958.88;;;36.71;28.91
15489;BME280;7846;48.830;9.116;2022-10-22T12:48:21;97956.31;;;36.05;28.82
15489;BME280;7846;48.830;9.116;2022-10-22T12:50:50;97964.84;;;34.70;30.52
15489;BME280;7846;48.830;9.116;2022-10-22T12:53:24;97950.91;;;33.30;31.94
15489;BME280;7846;48.830;9.116;2022-10-22T12:55:53;97955.53;;;35.25;29.63
15489;BME280;7846;48.830;9.116;2022-10-22T12:58:24;97946.88;;;35.31;29.54
15489;BME280;7846;48.830;9.116;2022-10-22T13:00:55;97935.75;;;35.76;29.78
15489;BME280;7846;48.830;9.116;2022-10-22T13:03:33;97937.91;;;34.41;30.60
15489;BME280;7846;48.830;9.116;2022-10-22T13:08:42;97918.50;;;31.21;34.53
15489;BME280;7846;48.830;9.116;2022-10-22T13:11:12;97923.50;;;34.49;31.09
15489;BME280;7846;48.830;9.116;2022-10-22T13:18:41;97935.50;;;38.18;25.98
15489;BME280;7846;48.830;9.116;2022-10-22T13:21:33;97931.41;;;38.24;25.74
15489;BME280;7846;48.830;9.116;2022-10-22T13:24:01;97926.91;;;36.75;27.09
15489;BME280;7846;48.830;9.116;2022-10-22T13:26:33;97922.03;;;37.45;26.31
15489;BME280;7846;48.830;9.116;2022-10-22T13:29:00;97928.47;;;38.83;26.04
15489;BME280;7846;48.830;9.116;2022-10-22T13:31:30;97917.06;;;38.72;25.72
15489;BME280;7846;48.830;9.116;2022-10-22T13:34:04;97911.72;;;37.71;27.04
15489;BME280;7846;48.830;9.116;2022-10-22T13:36:34;97912.69;;;38.17;26.16
15489;BME280;7846;48.830;9.116;2022-10-22T13:39:02;97905.94;;;37.64;27.24
15489;BME280;7846;48.830;9.116;2022-10-22T13:41:30;97907.72;;;38.11;25.93
15489;BME280;7846;48.830;9.116;2022-10-22T13:44:02;97908.91;;;37.80;26.54
15489;BME280;7846;48.830;9.116;2022-10-22T13:46:28;97906.81;;;34.14;29.08
15489;BME280;7846;48.830;9.116;2022-10-22T13:48:54;97898.56;;;36.19;27.85
15489;BME280;7846;48.830;9.116;2022-10-22T13:51:31;97897.84;;;38.52;25.67
15489;BME280;7846;48.830;9.116;2022-10-22T13:53:59;97908.25;;;38.79;25.35
15489;BME280;7846;48.830;9.116;2022-10-22T13:56:26;97899.63;;;39.26;24.29
15489;BME280;7846;48.830;9.116;2022-10-22T13:58:52;97899.88;;;37.41;25.92
15489;BME280;7846;48.830;9.116;2022-10-22T14:01:25;97899.88;;;38.76;25.02
15489;BME280;7846;48.830;9.116;2022-10-22T14:03:53;97901.13;;;39.36;24.63
15489;BME280;7846;48.830;9.116;2022-10-22T14:06:20;97905.34;;;39.09;24.93
15489;BME280;7846;48.830;9.116;2022-10-22T14:08:57;97901.06;;;36.85;26.78
15489;BME280;7846;48.830;9.116;2022-10-22T14:11:24;97894.72;;;37.99;25.59
15489;BME280;7846;48.830;9.116;2022-10-22T14:13:51;97890.25;;;37.65;26.29
15489;BME280;7846;48.830;9.116;2022-10-22T14:16:19;97902.38;;;39.51;24.86
15489;BME280;7846;48.830;9.116;2022-10-22T14:18:46;97894.44;;;38.13;25.65
15489;BME280;7846;48.830;9.116;2022-10-22T14:21:12;97898.81;;;41.15;23.66
15489;BME280;7846;48.830;9.116;2022-10-22T14:23:39;97911.38;;;41.95;22.82
15489;BME280;7846;48.830;9.116;2022-10-22T14:26:06;97890.16;;;37.14;26.96
15489;BME280;7846;48.830;9.116;2022-10-22T14:28:32;97897.69;;;37.85;25.69
15489;BME280;7846;48.830;9.116;2022-10-22T14:30:59;97897.91;;;39.34;24.79
15489;BME280;7846;48.830;9.116;2022-10-22T14:33:27;97898.59;;;40.92;23.66
15489;BME280;7846;48.830;9.116;2022-10-22T14:35:53;97901.81;;;41.26;21.87
15489;BME280;7846;48.830;9.116;2022-10-22T14:38:20;97898.28;;;40.09;23.21
15489;BME280;7846;48.830;9.116;2022-10-22T14:40:46;97902.19;;;41.91;22.03
15489;BME280;7846;48.830;9.116;2022-10-22T14:43:22;97902.94;;;39.44;23.53